sensor_id;sensor_type;location;lat;lon;timestamp;P1;durP1;ratioP1;P2;durP2;ratioP2
66974;SDS011;53903;51.464;-2.584;2022-08-19T00:00:12;2.83;;;1.10;;
66974;SDS011;53903;51.464;-2.584;2022-08-19T00:02:39;2.65;;;1.10;;
66974;SDS011;53903;51.464;-2.584;2022-08-19T00:05:05;2.10;;;0.60;;
66974;SDS011;53903;51.464;-2.584;2022-08-19T00:07:31;0.50;;;0.50;;
66974;SDS011;53903;51.464;-2.584;2022-08-19T00:09:56;2.22;;;0.73;;
66974;SDS011;53903;51.464;-2.584;2022-08-19T00:12:22;0.90;;;0.60;;
66974;SDS011;53903;51.464;-2.584;2022-08-19T00:14:47;1.05;;;0.60;;
66974;SDS011;53903;51.464;-2.584;2022-08-19T00:17:12;2.92;;;0.77;;
66974;SDS011;53903;51.464;-2.584;2022-08-19T00:19:38;2.35;;;0.80;;
66974;SDS011;53903;51.464;-2.584;2022-08-19T00:22:04;3.75;;;1.00;;
66974;SDS011;53903;51.464;-2.584;2022-08-19T00:24:30;5.18;;;0.90;;
66974;SDS011;53903;51.464;-2.584;2022-08-19T00:26:56;3.92;;;0.90;;
66974;SDS011;53903;51.464;-2.584;2022-08-19T00:29:22;6.15;;;1.35;;
66974;SDS011;53903;51.464;-2.584;2022-08-19T00:31:49;3.53;;;0.90;;
66974;SDS011;53903;51.464;-2.584;2022-08-19T00:34:17;4.05;;;1.00;;
66974;SDS011;53903;51.464;-2.584;2022-08-19T00:36:43;2.65;;;0.60;;
66974;SDS011;53903;51.464;-2.584;2022-08-19T00:39:09;6.95;;;1.27;;
66974;SDS011;53903;51.464;-2.584;2022-08-19T00:41:36;4.63;;;1.08;;
66974;SDS011;53903;51.464;-2.584;2022-08-19T00:46:39;3.45;;;1.00;;
66974;SDS011;53903;51.464;-2.584;2022-08-19T00:49:09;6.78;;;1.55;;
66974;SDS011;53903;51.464;-2.584;2022-08-19T00:51:39;6.00;;;0.80;;
66974;SDS011;53903;51.464;-2.584;2022-08-19T00:54:04;3.33;;;0.93;;
66974;SDS011;53903;51.464;-2.584;2022-08-19T00:56:30;6.93;;;1.23;;
66974;SDS011;53903;51.464;-2.584;2022-08-19T00:58:56;2.45;;;0.60;;
66974;SDS011;53903;51.464;-2.584;2022-08-19T01:01:23;4.60;;;1.10;;
66974;SDS011;53903;51.464;-2.584;2022-08-19T01:03:49;4.57;;;1.15;;
66974;SDS011;53903;51.464;-2.584;2022-08-19T01:06:14;4.38;;;0.88;;
66974;SDS011;53903;51.464;-2.584;2022-08-19T01:08:40;1.42;;;0.60;;
66974;SDS011;53903;51.464;-2.584;2022-08-19T01:11:05;2.33;;;0.60;;
66974;SDS011;53903;51.464;-2.584;2022-08-19T01:13:32;2.22;;;0.70;;
66974;SDS011;53903;51.464;-2.584;2022-08-19T01:16:05;1.75;;;0.80;;
66974;SDS011;53903;51.464;-2.584;2022-08-19T01:18:32;2.30;;;0.80;;
66974;SDS011;53903;51.464;-2.584;2022-08-19T01:21:05;2.75;;;1.20;;
66974;SDS011;53903;51.464;-2.584;2022-08-19T01:23:34;3.20;;;0.90;;
66974;SDS011;53903;51.464;-2.584;2022-08-19T01:26:10;2.13;;;0.60;;
66974;SDS011;53903;51.464;-2.584;2022-08-19T01:28:40;1.53;;;0.53;;
66974;SDS011;53903;51.464;-2.584;2022-08-19T01:31:08;5.20;;;0.93;;
66974;SDS011;53903;51.464;-2.584;2022-08-19T01:33:36;4.13;;;0.88;;
66974;SDS011;53903;51.464;-2.584;2022-08-19T01:36:10;3.03;;;0.80;;
66974;SDS011;53903;51.464;-2.584;2022-08-19T01:38:38;2.80;;;0.70;;
66974;SDS011;53903;51.464;-2.584;2022-08-19T01:41:04;4.93;;;0.85;;
66974;SDS011;53903;51.464;-2.584;2022-08-19T01:43:30;3.78;;;1.30;;
66974;SDS011;53903;51.464;-2.584;2022-08-19T01:45:56;3.05;;;1.10;;
66974;SDS011;53903;51.464;-2.584;2022-08-19T01:48:21;6.25;;;1.30;;
66974;SDS011;53903;51.464;-2.584;2022-08-19T01:50:47;3.00;;;1.42;;
66974;SDS011;53903;51.464;-2.584;2022-08-19T01:53:13;2.88;;;1.20;;
66974;SDS011;53903;51.464;-2.584;2022-08-19T01:55:39;5.85;;;1.98;;
66974;SDS011;53903;51.464;-2.584;2022-08-19T01:58:11;4.80;;;1.42;;
66974;SDS011;53903;51.464;-2.584;2022-08-19T02:00:38;3.70;;;1.25;;
66974;SDS011;53903;51.464;-2.584;2022-08-19T02:03:03;5.72;;;1.85;;
66974;SDS011;53903;51.464;-2.584;2022-08-19T02:05:29;5.65;;;1.63;;
66974;SDS011;53903;51.464;-2.584;2022-08-19T02:07:54;3.58;;;1.30;;
66974;SDS011;53903;51.464;-2.584;2022-08-19T02:10:21;3.78;;;1.55;;
66974;SDS011;53903;51.464;-2.584;2022-08-19T02:12:47;3.80;;;1.50;;
66974;SDS011;53903;51.464;-2.584;2022-08-19T02:15:14;5.07;;;1.80;;
66974;SDS011;53903;51.464;-2.584;2022-08-19T02:17:40;7.43;;;2.00;;
66974;SDS011;53903;51.464;-2.584;2022-08-19T02:20:06;7.35;;;1.65;;
66974;SDS011;53903;51.464;-2.584;2022-08-19T02:22:32;5.68;;;1.83;;
66974;SDS011;53903;51.464;-2.584;2022-08-19T02:24:58;7.47;;;1.90;;
66974;SDS011;53903;51.464;-2.584;2022-08-19T02:27:24;7.30;;;2.17;;
66974;SDS011;53903;51.464;-2.584;2022-08-19T02:29:50;8.60;;;2.10;;
66974;SDS011;53903;51.464;-2.584;2022-08-19T02:32:16;4.47;;;2.20;;
66974;SDS011;53903;51.464;-2.584;2022-08-19T02:34:44;4.40;;;1.60;;
66974;SDS011;53903;51.464;-2.584;2022-08-19T02:37:10;7.43;;;1.92;;
66974;SDS011;53903;51.464;-2.584;2022-08-19T02:39:55;7.00;;;2.15;;
66974;SDS011;53903;51.464;-2.584;2022-08-19T02:42:21;4.30;;;1.60;;
66974;SDS011;53903;51.464;-2.584;2022-08-19T02:44:46;8.30;;;1.80;;
66974;SDS011;53903;51.464;-2.584;2022-08-19T02:47:11;8.30;;;1.77;;
66974;SDS011;53903;51.464;-2.584;2022-08-19T02:49:39;7.00;;;1.50;;
66974;SDS011;53903;51.464;-2.584;2022-08-19T02:52:04;7.60;;;2.40;;
66974;SDS011;53903;51.464;-2.584;2022-08-19T02:54:30;6.07;;;1.63;;
66974;SDS011;53903;51.464;-2.584;2022-08-19T02:56:55;6.65;;;1.90;;
66974;SDS011;53903;51.464;-2.584;2022-08-19T02:59:20;5.72;;;1.55;;
66974;SDS011;53903;51.464;-2.584;2022-08-19T03:01:46;8.25;;;1.85;;
66974;SDS011;53903;51.464;-2.584;2022-08-19T03:04:12;10.60;;;2.08;;
66974;SDS011;53903;51.464;-2.584;2022-08-19T03:06:40;9.32;;;1.60;;
66974;SDS011;53903;51.464;-2.584;2022-08-19T03:09:07;4.90;;;2.03;;
66974;SDS011;53903;51.464;-2.584;2022-08-19T03:11:33;7.22;;;1.80;;
66974;SDS011;53903;51.464;-2.584;2022-08-19T03:13:59;8.05;;;1.92;;
66974;SDS011;53903;51.464;-2.584;2022-08-19T03:16:25;8.32;;;2.13;;
66974;SDS011;53903;51.464;-2.584;2022-08-19T03:18:52;7.88;;;1.70;;
66974;SDS011;53903;51.464;-2.584;2022-08-19T03:21:20;9.63;;;1.88;;
66974;SDS011;53903;51.464;-2.584;2022-08-19T03:23:50;7.45;;;2.25;;
66974;SDS011;53903;51.464;-2.584;2022-08-19T03:26:15;9.45;;;1.88;;
66974;SDS011;53903;51.464;-2.584;2022-08-19T03:28:41;6.95;;;2.25;;
66974;SDS011;53903;51.464;-2.584;2022-08-19T03:31:11;13.30;;;2.10;;
66974;SDS011;53903;51.464;-2.584;2022-08-19T03:33:37;7.65;;;1.88;;
66974;SDS011;53903;51.464;-2.584;2022-08-19T03:38:39;7.22;;;1.88;;
66974;SDS011;53903;51.464;-2.584;2022-08-19T03:41:07;6.85;;;2.00;;
66974;SDS011;53903;51.464;-2.584;2022-08-19T03:43:35;7.80;;;2.10;;
66974;SDS011;53903;51.464;-2.584;2022-08-19T03:46:22;10.70;;;2.28;;
66974;SDS011;53903;51.464;-2.584;2022-08-19T03:48:50;12.25;;;2.08;;
66974;SDS011;53903;51.464;-2.584;2022-08-19T03:51:21;17.90;;;2.40;;
66974;SDS011;53903;51.464;-2.584;2022-08-19T03:53:56;11.30;;;2.33;;
66974;SDS011;53903;51.464;-2.584;2022-08-19T03:56:23;13.15;;;2.50;;
66974;SDS011;53903;51.464;-2.584;2022-08-19T03:58:50;14.20;;;2.45;;
66974;SDS011;53903;51.464;-2.584;2022-08-19T04:01:18;11.75;;;2.75;;
66974;SDS011;53903;51.464;-2.584;2022-08-19T04:03:45;13.68;;;2.75;;
66974;SDS011;53903;51.464;-2.584;2022-08-19T04:06:12;11.00;;;2.50;;
66974;SDS011;53903;51.464;-2.584;2022-08-19T04:08:39;14.18;;;2.83;;
66974;SDS011;53903;51.464;-2.584;2022-08-19T04:11:06;12.52;;;2.83;;
66974;SDS011;53903;51.464;-2.584;2022-08-19T04:13:33;14.90;;;2.72;;
66974;SDS011;53903;51.464;-2.584;2022-08-19T04:15:59;12.90;;;3.30;;
66974;SDS011;53903;51.464;-2.584;2022-08-19T04:18:24;20.80;;;3.38;;
66974;SDS011;53903;51.464;-2.584;2022-08-19T04:20:50;16.23;;;3.33;;
66974;SDS011;53903;51.464;-2.584;2022-08-19T04:23:15;11.20;;;2.50;;
66974;SDS011;53903;51.464;-2.584;2022-08-19T04:25:42;10.68;;;3.50;;
66974;SDS011;53903;51.464;-2.584;2022-08-19T04:28:09;10.13;;;3.28;;
66974;SDS011;53903;51.464;-2.584;2022-08-19T04:30:39;19.88;;;3.38;;
66974;SDS011;53903;51.464;-2.584;2022-08-19T04:33:16;21.95;;;3.60;;
66974;SDS011;53903;51.464;-2.584;2022-08-19T04:35:44;16.33;;;3.50;;
66974;SDS011;53903;51.464;-2.584;2022-08-19T04:38:12;14.27;;;4.10;;
66974;SDS011;53903;51.464;-2.584;2022-08-19T04:40:44;18.60;;;3.33;;
66974;SDS011;53903;51.464;-2.584;2022-08-19T04:43:30;15.82;;;3.20;;
66974;SDS011;53903;51.464;-2.584;2022-08-19T04:45:55;12.07;;;3.00;;
66974;SDS011;53903;51.464;-2.584;2022-08-19T04:48:21;14.40;;;3.03;;
66974;SDS011;53903;51.464;-2.584;2022-08-19T04:50:51;13.95;;;3.55;;
66974;SDS011;53903;51.464;-2.584;2022-08-19T04:53:24;21.75;;;3.55;;
66974;SDS011;53903;51.464;-2.584;2022-08-19T04:55:51;12.10;;;2.90;;
66974;SDS011;53903;51.464;-2.584;2022-08-19T04:58:17;16.05;;;3.58;;
66974;SDS011;53903;51.464;-2.584;2022-08-19T05:00:43;16.30;;;3.28;;
66974;SDS011;53903;51.464;-2.584;2022-08-19T05:03:08;19.13;;;3.42;;
66974;SDS011;53903;51.464;-2.584;2022-08-19T05:05:37;12.13;;;3.13;;
66974;SDS011;53903;51.464;-2.584;2022-08-19T05:08:05;13.65;;;3.50;;
66974;SDS011;53903;51.464;-2.584;2022-08-19T05:10:30;16.75;;;3.80;;
66974;SDS011;53903;51.464;-2.584;2022-08-19T05:12:56;19.67;;;5.63;;
66974;SDS011;53903;51.464;-2.584;2022-08-19T05:15:22;17.20;;;3.95;;
66974;SDS011;53903;51.464;-2.584;2022-08-19T05:17:48;12.70;;;3.85;;
66974;SDS011;53903;51.464;-2.584;2022-08-19T05:20:33;12.65;;;4.00;;
66974;SDS011;53903;51.464;-2.584;2022-08-19T05:23:17;14.55;;;3.65;;
66974;SDS011;53903;51.464;-2.584;2022-08-19T05:25:42;15.18;;;4.47;;
66974;SDS011;53903;51.464;-2.584;2022-08-19T05:28:08;12.40;;;3.28;;
66974;SDS011;53903;51.464;-2.584;2022-08-19T05:30:33;15.75;;;3.50;;
66974;SDS011;53903;51.464;-2.584;2022-08-19T05:32:59;9.50;;;3.20;;
66974;SDS011;53903;51.464;-2.584;2022-08-19T05:35:24;10.48;;;3.50;;
66974;SDS011;53903;51.464;-2.584;2022-08-19T05:37:50;12.95;;;3.08;;
66974;SDS011;53903;51.464;-2.584;2022-08-19T05:40:15;16.52;;;3.80;;
66974;SDS011;53903;51.464;-2.584;2022-08-19T05:42:40;13.77;;;3.92;;
66974;SDS011;53903;51.464;-2.584;2022-08-19T05:45:06;9.50;;;3.13;;
66974;SDS011;53903;51.464;-2.584;2022-08-19T05:47:32;16.90;;;3.00;;
66974;SDS011;53903;51.464;-2.584;2022-08-19T05:49:57;11.80;;;3.38;;
66974;SDS011;53903;51.464;-2.584;2022-08-19T05:52:23;8.82;;;2.90;;
66974;SDS011;53903;51.464;-2.584;2022-08-19T05:54:48;13.82;;;2.92;;
66974;SDS011;53903;51.464;-2.584;2022-08-19T05:57:16;10.73;;;3.03;;
66974;SDS011;53903;51.464;-2.584;2022-08-19T05:59:41;11.68;;;2.63;;
66974;SDS011;53903;51.464;-2.584;2022-08-19T06:02:07;8.00;;;2.90;;
66974;SDS011;53903;51.464;-2.584;2022-08-19T06:04:32;11.60;;;3.40;;
66974;SDS011;53903;51.464;-2.584;2022-08-19T06:06:58;8.27;;;2.80;;
66974;SDS011;53903;51.464;-2.584;2022-08-19T06:09:24;7.32;;;3.15;;
66974;SDS011;53903;51.464;-2.584;2022-08-19T06:11:50;11.77;;;2.60;;
66974;SDS011;53903;51.464;-2.584;2022-08-19T06:14:24;10.00;;;2.50;;
66974;SDS011;53903;51.464;-2.584;2022-08-19T06:16:51;14.30;;;2.70;;
66974;SDS011;53903;51.464;-2.584;2022-08-19T06:19:20;8.40;;;2.47;;
66974;SDS011;53903;51.464;-2.584;2022-08-19T06:21:48;6.30;;;1.98;;
66974;SDS011;53903;51.464;-2.584;2022-08-19T06:24:15;9.45;;;2.33;;
66974;SDS011;53903;51.464;-2.584;2022-08-19T06:26:43;9.10;;;2.25;;
66974;SDS011;53903;51.464;-2.584;2022-08-19T06:29:14;7.40;;;2.58;;
66974;SDS011;53903;51.464;-2.584;2022-08-19T06:31:51;7.82;;;1.83;;
66974;SDS011;53903;51.464;-2.584;2022-08-19T06:34:18;7.97;;;2.15;;
66974;SDS011;53903;51.464;-2.584;2022-08-19T06:36:45;9.68;;;3.20;;
66974;SDS011;53903;51.464;-2.584;2022-08-19T06:39:14;11.82;;;2.95;;
66974;SDS011;53903;51.464;-2.584;2022-08-19T06:41:50;10.30;;;2.40;;
66974;SDS011;53903;51.464;-2.584;2022-08-19T06:44:19;10.73;;;3.20;;
66974;SDS011;53903;51.464;-2.584;2022-08-19T06:46:46;8.35;;;2.13;;
66974;SDS011;53903;51.464;-2.584;2022-08-19T06:49:13;12.63;;;3.45;;
66974;SDS011;53903;51.464;-2.584;2022-08-19T06:51:42;6.93;;;2.30;;
66974;SDS011;53903;51.464;-2.584;2022-08-19T06:54:12;9.98;;;2.63;;
66974;SDS011;53903;51.464;-2.584;2022-08-19T06:56:38;8.40;;;1.95;;
66974;SDS011;53903;51.464;-2.584;2022-08-19T06:59:05;6.88;;;2.20;;
66974;SDS011;53903;51.464;-2.584;2022-08-19T07:01:36;8.02;;;2.50;;
66974;SDS011;53903;51.464;-2.584;2022-08-19T07:04:03;13.23;;;2.97;;
66974;SDS011;53903;51.464;-2.584;2022-08-19T07:06:30;8.88;;;1.90;;
66974;SDS011;53903;51.464;-2.584;2022-08-19T07:08:56;9.05;;;1.70;;
66974;SDS011;53903;51.464;-2.584;2022-08-19T07:11:23;5.80;;;1.45;;
66974;SDS011;53903;51.464;-2.584;2022-08-19T07:13:48;10.20;;;1.70;;
66974;SDS011;53903;51.464;-2.584;2022-08-19T07:16:15;5.10;;;1.50;;
66974;SDS011;53903;51.464;-2.584;2022-08-19T07:18:44;9.18;;;1.67;;
66974;SDS011;53903;51.464;-2.584;2022-08-19T07:21:12;6.13;;;1.40;;
66974;SDS011;53903;51.464;-2.584;2022-08-19T07:23:44;13.18;;;2.20;;
66974;SDS011;53903;51.464;-2.584;2022-08-19T07:26:11;9.98;;;1.95;;
66974;SDS011;53903;51.464;-2.584;2022-08-19T07:28:41;8.05;;;1.60;;
66974;SDS011;53903;51.464;-2.584;2022-08-19T07:31:10;14.65;;;2.40;;
66974;SDS011;53903;51.464;-2.584;2022-08-19T07:33:37;11.18;;;2.30;;
66974;SDS011;53903;51.464;-2.584;2022-08-19T07:36:04;7.97;;;1.55;;
66974;SDS011;53903;51.464;-2.584;2022-08-19T07:38:31;9.95;;;2.10;;
66974;SDS011;53903;51.464;-2.584;2022-08-19T07:40:56;11.57;;;2.50;;
66974;SDS011;53903;51.464;-2.584;2022-08-19T07:43:22;2.83;;;1.10;;
66974;SDS011;53903;51.464;-2.584;2022-08-19T07:45:49;13.60;;;2.00;;
66974;SDS011;53903;51.464;-2.584;2022-08-19T07:48:15;7.43;;;1.98;;
66974;SDS011;53903;51.464;-2.584;2022-08-19T07:50:41;10.98;;;2.15;;
66974;SDS011;53903;51.464;-2.584;2022-08-19T07:53:06;6.72;;;1.88;;
66974;SDS011;53903;51.464;-2.584;2022-08-19T07:55:32;8.18;;;1.50;;
66974;SDS011;53903;51.464;-2.584;2022-08-19T07:57:59;6.65;;;1.52;;
66974;SDS011;53903;51.464;-2.584;2022-08-19T08:00:24;8.80;;;1.50;;
66974;SDS011;53903;51.464;-2.584;2022-08-19T08:02:50;7.60;;;1.60;;
66974;SDS011;53903;51.464;-2.584;2022-08-19T08:05:16;14.82;;;2.03;;
66974;SDS011;53903;51.464;-2.584;2022-08-19T08:08:00;7.95;;;1.73;;
66974;SDS011;53903;51.464;-2.584;2022-08-19T08:10:44;10.23;;;1.80;;
66974;SDS011;53903;51.464;-2.584;2022-08-19T08:13:09;7.43;;;1.60;;
66974;SDS011;53903;51.464;-2.584;2022-08-19T08:15:35;8.48;;;1.42;;
66974;SDS011;53903;51.464;-2.584;2022-08-19T08:18:02;6.07;;;1.95;;
66974;SDS011;53903;51.464;-2.584;2022-08-19T08:20:27;10.98;;;1.52;;
66974;SDS011;53903;51.464;-2.584;2022-08-19T08:22:53;9.02;;;1.50;;
66974;SDS011;53903;51.464;-2.584;2022-08-19T08:25:36;8.90;;;1.73;;
66974;SDS011;53903;51.464;-2.584;2022-08-19T08:28:03;6.22;;;1.38;;
66974;SDS011;53903;51.464;-2.584;2022-08-19T08:30:29;8.00;;;2.50;;
66974;SDS011;53903;51.464;-2.584;2022-08-19T08:32:55;10.85;;;2.40;;
66974;SDS011;53903;51.464;-2.584;2022-08-19T08:35:21;10.55;;;1.80;;
66974;SDS011;53903;51.464;-2.584;2022-08-19T08:37:48;11.60;;;1.98;;
66974;SDS011;53903;51.464;-2.584;2022-08-19T08:40:29;8.00;;;1.73;;
66974;SDS011;53903;51.464;-2.584;2022-08-19T08:51:20;5.57;;;1.63;;
66974;SDS011;53903;51.464;-2.584;2022-08-19T08:53:50;8.48;;;2.60;;
66974;SDS011;53903;51.464;-2.584;2022-08-19T08:56:17;7.97;;;1.45;;
66974;SDS011;53903;51.464;-2.584;2022-08-19T08:58:46;11.27;;;2.00;;
66974;SDS011;53903;51.464;-2.584;2022-08-19T09:01:16;10.95;;;2.10;;
66974;SDS011;53903;51.464;-2.584;2022-08-19T09:03:42;9.07;;;1.83;;
66974;SDS011;53903;51.464;-2.584;2022-08-19T09:09:05;10.35;;;1.40;;
66974;SDS011;53903;51.464;-2.584;2022-08-19T09:16:57;7.25;;;1.52;;
66974;SDS011;53903;51.464;-2.584;2022-08-19T09:19:23;9.75;;;2.22;;
66974;SDS011;53903;51.464;-2.584;2022-08-19T09:21:48;10.95;;;1.70;;
66974;SDS011;53903;51.464;-2.584;2022-08-19T09:24:15;9.65;;;2.55;;
66974;SDS011;53903;51.464;-2.584;2022-08-19T09:26:40;6.78;;;1.45;;
66974;SDS011;53903;51.464;-2.584;2022-08-19T09:29:08;7.85;;;1.40;;
66974;SDS011;53903;51.464;-2.584;2022-08-19T09:31:34;9.07;;;1.52;;
66974;SDS011;53903;51.464;-2.584;2022-08-19T09:34:00;9.40;;;2.10;;
66974;SDS011;53903;51.464;-2.584;2022-08-19T09:36:29;6.65;;;1.30;;
66974;SDS011;53903;51.464;-2.584;2022-08-19T09:38:58;5.10;;;1.17;;
66974;SDS011;53903;51.464;-2.584;2022-08-19T09:41:25;5.18;;;1.30;;
66974;SDS011;53903;51.464;-2.584;2022-08-19T09:43:51;6.70;;;1.50;;
66974;SDS011;53903;51.464;-2.584;2022-08-19T09:46:19;8.23;;;1.67;;
66974;SDS011;53903;51.464;-2.584;2022-08-19T09:48:46;5.38;;;1.45;;
66974;SDS011;53903;51.464;-2.584;2022-08-19T09:51:14;8.40;;;2.28;;
66974;SDS011;53903;51.464;-2.584;2022-08-19T09:53:41;6.88;;;1.63;;
66974;SDS011;53903;51.464;-2.584;2022-08-19T09:56:08;13.38;;;2.20;;
66974;SDS011;53903;51.464;-2.584;2022-08-19T09:58:34;4.78;;;1.30;;
66974;SDS011;53903;51.464;-2.584;2022-08-19T10:01:01;6.05;;;1.52;;
66974;SDS011;53903;51.464;-2.584;2022-08-19T10:03:28;6.80;;;1.55;;
66974;SDS011;53903;51.464;-2.584;2022-08-19T10:05:55;12.98;;;2.03;;
66974;SDS011;53903;51.464;-2.584;2022-08-19T10:08:26;7.90;;;1.70;;
66974;SDS011;53903;51.464;-2.584;2022-08-19T10:10:57;6.83;;;1.40;;
66974;SDS011;53903;51.464;-2.584;2022-08-19T10:13:25;5.05;;;1.70;;
66974;SDS011;53903;51.464;-2.584;2022-08-19T10:15:52;7.47;;;1.50;;
66974;SDS011;53903;51.464;-2.584;2022-08-19T10:18:19;7.28;;;1.70;;
66974;SDS011;53903;51.464;-2.584;2022-08-19T10:20:46;5.72;;;1.55;;
66974;SDS011;53903;51.464;-2.584;2022-08-19T10:23:13;11.57;;;2.08;;
66974;SDS011;53903;51.464;-2.584;2022-08-19T10:25:40;11.38;;;2.30;;
66974;SDS011;53903;51.464;-2.584;2022-08-19T10:28:06;9.57;;;2.20;;
66974;SDS011;53903;51.464;-2.584;2022-08-19T10:30:32;11.90;;;2.20;;
66974;SDS011;53903;51.464;-2.584;2022-08-19T10:32:57;9.43;;;2.30;;
66974;SDS011;53903;51.464;-2.584;2022-08-19T10:35:23;14.07;;;2.30;;
66974;SDS011;53903;51.464;-2.584;2022-08-19T10:37:51;6.63;;;1.60;;
66974;SDS011;53903;51.464;-2.584;2022-08-19T10:40:16;14.48;;;2.38;;
66974;SDS011;53903;51.464;-2.584;2022-08-19T10:42:42;8.32;;;2.08;;
66974;SDS011;53903;51.464;-2.584;2022-08-19T10:45:09;9.85;;;2.15;;
66974;SDS011;53903;51.464;-2.584;2022-08-19T10:47:35;9.15;;;1.92;;
66974;SDS011;53903;51.464;-2.584;2022-08-19T10:50:01;15.10;;;2.20;;
66974;SDS011;53903;51.464;-2.584;2022-08-19T10:52:48;10.13;;;1.90;;
66974;SDS011;53903;51.464;-2.584;2022-08-19T10:55:16;4.07;;;1.30;;
66974;SDS011;53903;51.464;-2.584;2022-08-19T10:58:02;10.80;;;2.10;;
66974;SDS011;53903;51.464;-2.584;2022-08-19T11:00:28;10.55;;;1.92;;
66974;SDS011;53903;51.464;-2.584;2022-08-19T11:02:55;10.13;;;1.77;;
66974;SDS011;53903;51.464;-2.584;2022-08-19T11:05:21;8.05;;;1.63;;
66974;SDS011;53903;51.464;-2.584;2022-08-19T11:07:47;11.07;;;2.17;;
66974;SDS011;53903;51.464;-2.584;2022-08-19T11:10:15;11.48;;;2.38;;
66974;SDS011;53903;51.464;-2.584;2022-08-19T11:12:43;9.63;;;2.40;;
66974;SDS011;53903;51.464;-2.584;2022-08-19T11:15:10;7.47;;;1.67;;
66974;SDS011;53903;51.464;-2.584;2022-08-19T11:17:36;5.00;;;1.58;;
66974;SDS011;53903;51.464;-2.584;2022-08-19T11:20:05;3.83;;;1.52;;
66974;SDS011;53903;51.464;-2.584;2022-08-19T11:22:31;12.32;;;2.20;;
66974;SDS011;53903;51.464;-2.584;2022-08-19T11:24:57;8.32;;;2.50;;
66974;SDS011;53903;51.464;-2.584;2022-08-19T11:27:22;15.65;;;2.00;;
66974;SDS011;53903;51.464;-2.584;2022-08-19T11:29:48;5.05;;;1.50;;
66974;SDS011;53903;51.464;-2.584;2022-08-19T11:32:13;7.82;;;1.83;;
66974;SDS011;53903;51.464;-2.584;2022-08-19T11:34:39;8.60;;;1.90;;
66974;SDS011;53903;51.464;-2.584;2022-08-19T11:37:05;8.65;;;1.98;;
66974;SDS011;53903;51.464;-2.584;2022-08-19T11:39:31;11.60;;;2.17;;
66974;SDS011;53903;51.464;-2.584;2022-08-19T11:41:58;9.10;;;1.92;;
66974;SDS011;53903;51.464;-2.584;2022-08-19T11:44:24;6.97;;;1.50;;
66974;SDS011;53903;51.464;-2.584;2022-08-19T11:46:50;8.25;;;2.28;;
66974;SDS011;53903;51.464;-2.584;2022-08-19T11:49:17;9.70;;;2.40;;
66974;SDS011;53903;51.464;-2.584;2022-08-19T11:51:44;7.88;;;1.65;;
66974;SDS011;53903;51.464;-2.584;2022-08-19T11:54:10;7.22;;;1.60;;
66974;SDS011;53903;51.464;-2.584;2022-08-19T11:56:41;4.70;;;1.58;;
66974;SDS011;53903;51.464;-2.584;2022-08-19T11:59:07;9.82;;;1.80;;
66974;SDS011;53903;51.464;-2.584;2022-08-19T12:01:32;6.65;;;1.60;;
66974;SDS011;53903;51.464;-2.584;2022-08-19T12:03:58;5.95;;;1.70;;
66974;SDS011;53903;51.464;-2.584;2022-08-19T12:06:25;6.20;;;1.40;;
66974;SDS011;53903;51.464;-2.584;2022-08-19T12:08:53;11.80;;;2.17;;
66974;SDS011;53903;51.464;-2.584;2022-08-19T12:11:22;9.73;;;1.90;;
66974;SDS011;53903;51.464;-2.584;2022-08-19T12:13:47;10.27;;;1.85;;
66974;SDS011;53903;51.464;-2.584;2022-08-19T12:16:23;12.98;;;1.90;;
66974;SDS011;53903;51.464;-2.584;2022-08-19T12:18:50;14.60;;;2.53;;
66974;SDS011;53903;51.464;-2.584;2022-08-19T12:21:17;7.05;;;1.65;;
66974;SDS011;53903;51.464;-2.584;2022-08-19T12:23:46;9.13;;;1.75;;
66974;SDS011;53903;51.464;-2.584;2022-08-19T12:26:13;7.93;;;1.80;;
66974;SDS011;53903;51.464;-2.584;2022-08-19T12:28:38;10.80;;;1.80;;
66974;SDS011;53903;51.464;-2.584;2022-08-19T12:31:04;10.85;;;2.20;;
66974;SDS011;53903;51.464;-2.584;2022-08-19T12:33:30;6.40;;;1.52;;
66974;SDS011;53903;51.464;-2.584;2022-08-19T12:36:00;8.65;;;1.73;;
66974;SDS011;53903;51.464;-2.584;2022-08-19T12:38:27;11.50;;;1.45;;
66974;SDS011;53903;51.464;-2.584;2022-08-19T12:40:54;6.93;;;1.80;;
66974;SDS011;53903;51.464;-2.584;2022-08-19T12:43:19;8.82;;;1.80;;
66974;SDS011;53903;51.464;-2.584;2022-08-19T12:45:45;8.32;;;1.70;;
66974;SDS011;53903;51.464;-2.584;2022-08-19T12:48:11;7.00;;;1.38;;
66974;SDS011;53903;51.464;-2.584;2022-08-19T12:50:40;11.00;;;1.80;;
66974;SDS011;53903;51.464;-2.584;2022-08-19T12:53:06;7.45;;;1.70;;
66974;SDS011;53903;51.464;-2.584;2022-08-19T12:55:32;9.40;;;1.80;;
66974;SDS011;53903;51.464;-2.584;2022-08-19T12:57:57;9.30;;;1.27;;
66974;SDS011;53903;51.464;-2.584;2022-08-19T13:00:23;6.05;;;1.35;;
66974;SDS011;53903;51.464;-2.584;2022-08-19T13:02:50;7.22;;;1.63;;
66974;SDS011;53903;51.464;-2.584;2022-08-19T13:05:18;7.82;;;1.70;;
66974;SDS011;53903;51.464;-2.584;2022-08-19T13:07:48;10.85;;;1.60;;
66974;SDS011;53903;51.464;-2.584;2022-08-19T13:10:15;9.23;;;1.95;;
66974;SDS011;53903;51.464;-2.584;2022-08-19T13:12:42;5.68;;;1.40;;
66974;SDS011;53903;51.464;-2.584;2022-08-19T13:15:08;11.10;;;1.38;;
66974;SDS011;53903;51.464;-2.584;2022-08-19T13:17:34;6.85;;;1.60;;
66974;SDS011;53903;51.464;-2.584;2022-08-19T13:20:00;3.20;;;1.25;;
66974;SDS011;53903;51.464;-2.584;2022-08-19T13:22:26;8.80;;;1.67;;
66974;SDS011;53903;51.464;-2.584;2022-08-19T13:24:52;8.98;;;2.03;;
66974;SDS011;53903;51.464;-2.584;2022-08-19T13:27:17;6.30;;;1.60;;
66974;SDS011;53903;51.464;-2.584;2022-08-19T13:29:43;6.82;;;1.60;;
66974;SDS011;53903;51.464;-2.584;2022-08-19T13:32:28;6.03;;;1.52;;
66974;SDS011;53903;51.464;-2.584;2022-08-19T13:35:12;10.93;;;1.63;;
66974;SDS011;53903;51.464;-2.584;2022-08-19T13:37:37;6.47;;;1.60;;
66974;SDS011;53903;51.464;-2.584;2022-08-19T13:40:06;3.70;;;1.35;;
66974;SDS011;53903;51.464;-2.584;2022-08-19T13:42:42;7.97;;;1.75;;
66974;SDS011;53903;51.464;-2.584;2022-08-19T13:45:09;8.77;;;1.73;;
66974;SDS011;53903;51.464;-2.584;2022-08-19T13:47:35;5.82;;;1.30;;
66974;SDS011;53903;51.464;-2.584;2022-08-19T13:50:04;5.88;;;1.65;;
66974;SDS011;53903;51.464;-2.584;2022-08-19T13:52:29;2.47;;;0.90;;
66974;SDS011;53903;51.464;-2.584;2022-08-19T13:54:55;7.38;;;1.50;;
66974;SDS011;53903;51.464;-2.584;2022-08-19T13:57:21;5.32;;;1.33;;
66974;SDS011;53903;51.464;-2.584;2022-08-19T13:59:47;4.63;;;1.17;;
66974;SDS011;53903;51.464;-2.584;2022-08-19T14:02:12;6.85;;;1.25;;
66974;SDS011;53903;51.464;-2.584;2022-08-19T14:04:37;5.63;;;1.30;;
66974;SDS011;53903;51.464;-2.584;2022-08-19T14:07:03;5.05;;;1.05;;
66974;SDS011;53903;51.464;-2.584;2022-08-19T14:09:29;4.30;;;0.90;;
66974;SDS011;53903;51.464;-2.584;2022-08-19T14:11:54;6.30;;;1.42;;
66974;SDS011;53903;51.464;-2.584;2022-08-19T14:14:20;4.50;;;1.25;;
66974;SDS011;53903;51.464;-2.584;2022-08-19T14:16:46;4.35;;;0.98;;
66974;SDS011;53903;51.464;-2.584;2022-08-19T14:19:12;2.65;;;1.00;;
66974;SDS011;53903;51.464;-2.584;2022-08-19T14:21:37;4.57;;;1.00;;
66974;SDS011;53903;51.464;-2.584;2022-08-19T14:24:02;5.93;;;1.10;;
66974;SDS011;53903;51.464;-2.584;2022-08-19T14:26:28;3.55;;;1.08;;
66974;SDS011;53903;51.464;-2.584;2022-08-19T14:28:53;3.00;;;0.88;;
66974;SDS011;53903;51.464;-2.584;2022-08-19T14:31:22;5.35;;;1.20;;
66974;SDS011;53903;51.464;-2.584;2022-08-19T14:33:49;2.70;;;1.00;;
66974;SDS011;53903;51.464;-2.584;2022-08-19T14:36:15;3.67;;;1.50;;
66974;SDS011;53903;51.464;-2.584;2022-08-19T14:38:41;4.97;;;1.23;;
66974;SDS011;53903;51.464;-2.584;2022-08-19T14:43:33;5.03;;;1.13;;
66974;SDS011;53903;51.464;-2.584;2022-08-19T14:45:59;3.00;;;0.80;;
66974;SDS011;53903;51.464;-2.584;2022-08-19T14:48:24;3.20;;;0.93;;
66974;SDS011;53903;51.464;-2.584;2022-08-19T14:50:50;5.68;;;1.00;;
66974;SDS011;53903;51.464;-2.584;2022-08-19T14:53:17;3.10;;;1.08;;
66974;SDS011;53903;51.464;-2.584;2022-08-19T14:55:43;3.63;;;1.00;;